createdAt,value
2022-12-11T00:02:01.537Z,-0.92
2022-12-11T00:04:07.204Z,-0.94
2022-12-11T00:06:12.790Z,-0.9
2022-12-11T00:08:18.058Z,-0.86
2022-12-11T00:10:23.563Z,-0.88
2022-12-11T00:12:29.990Z,-0.94
2022-12-11T00:14:35.750Z,-0.9
2022-12-11T00:16:41.115Z,-0.87
2022-12-11T00:18:46.589Z,-0.92
2022-12-11T00:20:52.061Z,-0.84
2022-12-11T00:22:58.379Z,-0.87
2022-12-11T00:25:04.702Z,-0.85
2022-12-11T00:27:10.280Z,-0.87
2022-12-11T00:29:15.585Z,-0.88
2022-12-11T00:31:20.762Z,-0.85
2022-12-11T00:33:26.432Z,-0.83
2022-12-11T00:35:31.772Z,-0.87
2022-12-11T00:37:36.984Z,-0.86
2022-12-11T00:39:42.731Z,-0.82
2022-12-11T00:41:48.055Z,-0.85
2022-12-11T00:43:53.435Z,-0.89
2022-12-11T00:45:58.781Z,-0.86
2022-12-11T00:48:04.336Z,-0.89
2022-12-11T00:50:11.633Z,-0.89
2022-12-11T00:52:17.008Z,-0.9
2022-12-11T00:54:26.515Z,-0.83
2022-12-11T00:56:31.878Z,-0.89
2022-12-11T00:58:36.998Z,-0.97
2022-12-11T01:00:42.608Z,-0.92
2022-12-11T01:02:48.297Z,-1
2022-12-11T01:04:54.154Z,-0.98
2022-12-11T01:06:59.530Z,-1.04
2022-12-11T01:09:05.195Z,-1.08
2022-12-11T01:11:10.938Z,-0.99
2022-12-11T01:13:16.271Z,-1.05
2022-12-11T01:15:21.918Z,-1.03
2022-12-11T01:17:27.572Z,-1.04
2022-12-11T01:19:33.044Z,-1.15
2022-12-11T01:21:38.407Z,-1.09
2022-12-11T01:23:51.919Z,-1.13
2022-12-11T01:25:57.230Z,-1.09
2022-12-11T01:28:02.660Z,-1.03
2022-12-11T01:30:08.379Z,-1.06
2022-12-11T01:32:13.889Z,-1.09
2022-12-11T01:34:19.144Z,-1.06
2022-12-11T01:36:24.907Z,-1.15
2022-12-11T01:38:30.367Z,-1.15
2022-12-11T01:40:36.766Z,-1.16
2022-12-11T01:42:42.075Z,-1.18
2022-12-11T01:44:47.384Z,-1.16
2022-12-11T01:46:52.804Z,-1.13
2022-12-11T01:48:58.953Z,-1.14
2022-12-11T01:51:05.410Z,-1.18
2022-12-11T01:53:12.021Z,-1.17
2022-12-11T01:55:17.326Z,-1.15
2022-12-11T01:57:24.755Z,-1.24
2022-12-11T01:59:30.130Z,-1.24
2022-12-11T02:01:36.062Z,-1.23
2022-12-11T02:03:41.547Z,-1.2
2022-12-11T02:05:48.029Z,-1.24
2022-12-11T02:07:53.257Z,-1.21
2022-12-11T02:09:59.138Z,-1.2
2022-12-11T02:12:06.568Z,-1.23
2022-12-11T02:14:11.638Z,-1.22
2022-12-11T02:16:16.752Z,-1.22
2022-12-11T02:18:22.424Z,-1.2
2022-12-11T02:20:27.919Z,-1.21
2022-12-11T02:22:33.363Z,-1.29
2022-12-11T02:24:38.954Z,-1.23
2022-12-11T02:26:44.396Z,-1.18
2022-12-11T02:28:49.785Z,-1.16
2022-12-11T02:30:55.486Z,-1.26
2022-12-11T02:33:01.121Z,-1.26
2022-12-11T02:35:06.634Z,-1.28
2022-12-11T02:37:13.304Z,-1.25
2022-12-11T02:39:18.707Z,-1.25
2022-12-11T02:41:24.026Z,-1.27
2022-12-11T02:43:29.406Z,-1.28
2022-12-11T02:48:01.511Z,-1.3
2022-12-11T02:50:06.791Z,-1.3
2022-12-11T02:52:12.084Z,-1.3
2022-12-11T02:54:17.546Z,-1.26
2022-12-11T02:56:22.940Z,-1.34
2022-12-11T02:58:29.556Z,-1.35
2022-12-11T03:00:36.252Z,-1.49
2022-12-11T03:02:44.095Z,-1.51
2022-12-11T03:04:49.817Z,-1.53
2022-12-11T03:06:54.986Z,-1.58
2022-12-11T03:09:00.299Z,-1.62
2022-12-11T03:11:05.821Z,-1.64
2022-12-11T03:13:11.164Z,-1.66
2022-12-11T03:15:16.720Z,-1.69
2022-12-11T03:17:21.928Z,-1.68
2022-12-11T03:19:27.723Z,-1.62
2022-12-11T03:21:33.213Z,-1.56
2022-12-11T03:23:38.690Z,-1.57
2022-12-11T03:25:43.906Z,-1.56
2022-12-11T03:27:49.071Z,-1.54
2022-12-11T03:29:54.601Z,-1.56
2022-12-11T03:32:01.029Z,-1.61
2022-12-11T03:34:06.151Z,-1.62
2022-12-11T03:36:11.481Z,-1.63
2022-12-11T03:38:16.877Z,-1.59
2022-12-11T03:40:22.174Z,-1.57
2022-12-11T03:42:28.855Z,-1.64
2022-12-11T03:44:35.099Z,-1.69
2022-12-11T03:46:40.943Z,-1.67
2022-12-11T03:48:46.420Z,-1.69
2022-12-11T03:50:51.935Z,-1.72
2022-12-11T03:53:00.339Z,-1.74
2022-12-11T03:55:06.099Z,-1.69
2022-12-11T03:57:12.652Z,-1.73
2022-12-11T03:59:17.949Z,-1.71
2022-12-11T04:01:23.854Z,-1.67
2022-12-11T04:03:29.970Z,-1.74
2022-12-11T04:05:35.497Z,-1.79
2022-12-11T04:07:40.845Z,-1.77
2022-12-11T04:09:46.419Z,-1.71
2022-12-11T04:11:51.877Z,-1.71
2022-12-11T04:13:58.181Z,-1.71
2022-12-11T04:16:03.991Z,-1.76
2022-12-11T04:18:09.955Z,-1.8
2022-12-11T04:20:17.555Z,-1.86
2022-12-11T04:22:23.525Z,-1.86
2022-12-11T04:24:29.452Z,-1.84
2022-12-11T04:26:35.093Z,-1.87
2022-12-11T04:28:40.787Z,-1.92
2022-12-11T04:30:46.451Z,-1.89
2022-12-11T04:32:52.205Z,-1.85
2022-12-11T04:34:57.765Z,-1.91
2022-12-11T04:37:03.267Z,-1.94
2022-12-11T04:39:08.811Z,-1.9
2022-12-11T04:41:14.205Z,-1.97
2022-12-11T04:43:19.563Z,-1.97
2022-12-11T04:45:24.753Z,-1.94
2022-12-11T04:47:30.499Z,-1.88
2022-12-11T04:49:36.073Z,-1.94
2022-12-11T04:51:41.697Z,-1.96
2022-12-11T04:53:49.298Z,-1.95
2022-12-11T04:55:55.336Z,-1.96
2022-12-11T04:58:00.782Z,-1.97
2022-12-11T05:00:06.351Z,-1.97
2022-12-11T05:02:11.725Z,-2.06
2022-12-11T05:04:17.527Z,-2.07
2022-12-11T05:06:23.171Z,-2.08
2022-12-11T05:08:28.585Z,-2.12
2022-12-11T05:10:35.067Z,-2.13
2022-12-11T05:12:45.462Z,-2.14
2022-12-11T05:14:50.973Z,-2.1
2022-12-11T05:16:56.523Z,-2.09
2022-12-11T05:19:02.175Z,-2.08
2022-12-11T05:21:07.684Z,-2.14
2022-12-11T05:23:13.357Z,-2.12
2022-12-11T05:25:19.145Z,-2.17
2022-12-11T05:27:24.738Z,-2.16
2022-12-11T05:29:30.031Z,-2.17
2022-12-11T05:31:35.623Z,-2.17
2022-12-11T05:33:41.426Z,-2.19
2022-12-11T05:35:50.155Z,-2.23
2022-12-11T05:37:55.980Z,-2.21
2022-12-11T05:40:01.584Z,-2.2
2022-12-11T05:42:07.214Z,-2.16
2022-12-11T05:44:13.302Z,-2.21
2022-12-11T05:46:22.285Z,-2.16
2022-12-11T05:48:27.874Z,-2.16
2022-12-11T05:50:33.398Z,-2.2
2022-12-11T05:52:38.997Z,-2.2
2022-12-11T05:54:44.638Z,-2.19
2022-12-11T05:56:53.348Z,-2.23
2022-12-11T05:58:58.825Z,-2.19
2022-12-11T06:01:05.444Z,-2.2
2022-12-11T06:03:11.118Z,-2.22
2022-12-11T06:05:16.912Z,-2.2
2022-12-11T06:07:22.174Z,-2.2
2022-12-11T06:09:27.717Z,-2.21
2022-12-11T06:11:33.234Z,-2.22
2022-12-11T06:13:38.973Z,-2.27
2022-12-11T06:15:44.421Z,-2.28
2022-12-11T06:17:50.183Z,-2.21
2022-12-11T06:19:55.901Z,-2.21
2022-12-11T06:22:01.513Z,-2.22
2022-12-11T06:24:06.640Z,-2.24
2022-12-11T06:26:12.009Z,-2.24
2022-12-11T06:28:17.519Z,-2.26
2022-12-11T06:30:23.034Z,-2.25
2022-12-11T06:32:45.834Z,-2.27
2022-12-11T06:34:55.306Z,-2.32
2022-12-11T06:37:01.386Z,-2.29
2022-12-11T06:39:07.554Z,-2.33
2022-12-11T06:41:13.171Z,-2.34
2022-12-11T06:43:19.670Z,-2.36
2022-12-11T06:45:25.313Z,-2.37
2022-12-11T06:47:31.344Z,-2.41
2022-12-11T06:49:37.014Z,-2.41
2022-12-11T06:51:42.524Z,-2.37
2022-12-11T06:53:50.274Z,-2.39
2022-12-11T06:55:56.158Z,-2.39
2022-12-11T06:58:02.447Z,-2.46
2022-12-11T07:00:08.187Z,-2.51
2022-12-11T07:02:13.758Z,-2.55
2022-12-11T07:04:19.489Z,-2.51
2022-12-11T07:06:25.139Z,-2.6
2022-12-11T07:08:31.904Z,-2.74
2022-12-11T07:10:37.540Z,-2.74
2022-12-11T07:12:43.116Z,-2.66
2022-12-11T07:14:48.626Z,-2.66
2022-12-11T07:16:54.012Z,-2.65
2022-12-11T07:18:59.640Z,-2.65
2022-12-11T07:21:06.249Z,-2.69
2022-12-11T07:23:11.655Z,-2.64
2022-12-11T07:25:17.402Z,-2.61
2022-12-11T07:27:23.889Z,-2.67
2022-12-11T07:29:29.497Z,-2.67
2022-12-11T07:31:35.069Z,-2.6
2022-12-11T07:33:40.970Z,-2.6
2022-12-11T07:35:46.820Z,-2.56
2022-12-11T07:37:53.233Z,-2.54
2022-12-11T07:39:58.892Z,-2.56
2022-12-11T07:42:04.711Z,-2.52
2022-12-11T07:44:10.624Z,-2.51
2022-12-11T07:46:17.078Z,-2.58
2022-12-11T07:48:23.839Z,-2.56
2022-12-11T07:50:32.019Z,-2.49
2022-12-11T07:52:44.634Z,-2.56
2022-12-11T07:54:50.339Z,-2.57
2022-12-11T07:56:55.892Z,-2.59
2022-12-11T07:59:01.387Z,-2.55
2022-12-11T08:01:07.062Z,-2.66
2022-12-11T08:03:13.413Z,-2.68
2022-12-11T08:05:19.572Z,-2.76
2022-12-11T08:07:25.469Z,-2.7
2022-12-11T08:09:30.939Z,-2.69
2022-12-11T08:11:36.921Z,-2.7
2022-12-11T08:13:42.944Z,-2.73
2022-12-11T08:15:48.846Z,-2.73
2022-12-11T08:17:57.495Z,-2.77
2022-12-11T08:20:03.634Z,-2.74
2022-12-11T08:22:09.552Z,-2.79
2022-12-11T08:24:15.461Z,-2.74
2022-12-11T08:26:20.874Z,-2.62
2022-12-11T08:28:27.727Z,-2.53
2022-12-11T08:30:33.225Z,-2.61
2022-12-11T08:32:39.663Z,-2.67
2022-12-11T08:37:07.249Z,-2.61
2022-12-11T08:39:14.000Z,-2.6
2022-12-11T08:41:20.729Z,-2.56
2022-12-11T08:43:26.802Z,-2.61
2022-12-11T08:45:34.901Z,-2.62
2022-12-11T08:47:41.378Z,-2.66
2022-12-11T08:51:56.121Z,-2.58
2022-12-11T08:54:02.399Z,-2.59
2022-12-11T08:56:08.567Z,-2.65
2022-12-11T08:58:15.087Z,-2.73
2022-12-11T09:00:21.246Z,-2.78
2022-12-11T09:04:34.973Z,-2.64
2022-12-11T09:06:41.661Z,-2.63
2022-12-11T09:08:52.115Z,-2.64
2022-12-11T09:10:58.780Z,-2.6
2022-12-11T09:13:07.032Z,-2.59
2022-12-11T09:15:13.311Z,-2.59
2022-12-11T09:17:20.495Z,-2.69
2022-12-11T09:19:30.729Z,-2.81
2022-12-11T09:21:38.233Z,-2.73
2022-12-11T09:23:47.164Z,-2.67
2022-12-11T09:25:53.032Z,-2.53
2022-12-11T09:27:58.936Z,-2.46
2022-12-11T09:30:04.794Z,-2.61
2022-12-11T09:32:10.309Z,-2.57
2022-12-11T09:34:16.113Z,-2.57
2022-12-11T09:36:28.100Z,-2.59
2022-12-11T09:38:33.660Z,-2.45
2022-12-11T09:40:39.312Z,-2.59
2022-12-11T09:42:46.439Z,-2.76
2022-12-11T09:44:52.511Z,-2.75
2022-12-11T09:46:58.589Z,-2.76
2022-12-11T09:49:06.335Z,-2.81
2022-12-11T09:51:12.509Z,-2.8
2022-12-11T09:53:18.663Z,-2.66
2022-12-11T09:55:24.310Z,-2.69
2022-12-11T09:57:30.362Z,-2.76
2022-12-11T09:59:36.168Z,-2.72
2022-12-11T10:01:42.345Z,-2.65
2022-12-11T10:03:49.200Z,-2.48
2022-12-11T10:05:58.367Z,-2.5
2022-12-11T10:08:10.096Z,-2.52
2022-12-11T10:10:16.350Z,-2.5
2022-12-11T10:12:22.634Z,-2.58
2022-12-11T10:14:30.077Z,-2.63
2022-12-11T10:16:36.459Z,-2.61
2022-12-11T10:18:42.853Z,-2.66
2022-12-11T10:20:51.276Z,-2.6
2022-12-11T10:22:57.869Z,-2.72
2022-12-11T10:25:11.022Z,-2.79
2022-12-11T10:27:18.455Z,-2.74
2022-12-11T10:29:24.955Z,-2.59
2022-12-11T10:31:31.344Z,-2.76
2022-12-11T10:33:39.140Z,-2.68
2022-12-11T10:35:45.376Z,-2.61
2022-12-11T10:37:51.928Z,-2.57
2022-12-11T10:39:58.369Z,-2.57
2022-12-11T10:42:04.753Z,-2.74
2022-12-11T10:44:12.177Z,-2.81
2022-12-11T10:46:18.533Z,-2.79
2022-12-11T10:48:24.347Z,-2.76
2022-12-11T10:50:30.791Z,-2.76
2022-12-11T10:52:38.205Z,-2.69
2022-12-11T10:54:44.769Z,-2.81
2022-12-11T10:56:50.820Z,-2.84
2022-12-11T10:58:56.951Z,-2.79
2022-12-11T11:01:04.310Z,-2.86
2022-12-11T11:03:10.551Z,-2.82
2022-12-11T11:05:17.871Z,-2.94
2022-12-11T11:07:24.203Z,-2.87
2022-12-11T11:09:30.188Z,-2.82
2022-12-11T11:11:36.327Z,-2.78
2022-12-11T11:16:04.755Z,-2.76
2022-12-11T11:18:11.433Z,-2.7
2022-12-11T11:20:18.226Z,-2.71
2022-12-11T11:22:25.307Z,-2.72
2022-12-11T11:24:31.652Z,-2.79
2022-12-11T11:27:11.465Z,-2.66
2022-12-11T11:29:18.983Z,-2.72
2022-12-11T11:31:25.111Z,-2.62
2022-12-11T11:33:35.778Z,-2.59
2022-12-11T11:35:45.815Z,-2.56
2022-12-11T11:37:52.976Z,-2.51
2022-12-11T11:40:00.872Z,-2.64
2022-12-11T11:42:08.515Z,-2.73
2022-12-11T11:44:16.123Z,-2.66
2022-12-11T11:46:23.774Z,-2.68
2022-12-11T11:48:34.840Z,-2.66
2022-12-11T11:50:41.125Z,-2.67
2022-12-11T11:52:47.592Z,-2.62
2022-12-11T11:54:55.056Z,-2.71
2022-12-11T11:57:02.001Z,-2.8
2022-12-11T11:59:10.269Z,-2.72
2022-12-11T12:01:16.919Z,-2.71
2022-12-11T12:03:24.405Z,-2.69
2022-12-11T12:05:31.101Z,-2.75
2022-12-11T12:07:38.270Z,-2.77
2022-12-11T12:09:46.425Z,-2.75
2022-12-11T12:11:53.403Z,-2.65
2022-12-11T12:13:59.611Z,-2.74
2022-12-11T12:16:50.868Z,-2.79
2022-12-11T12:18:59.365Z,-2.61
2022-12-11T12:21:06.649Z,-2.6
2022-12-11T12:23:13.581Z,-2.62
2022-12-11T12:25:19.665Z,-2.77
2022-12-11T12:27:51.400Z,-2.69
2022-12-11T12:29:58.834Z,-2.64
2022-12-11T12:32:06.370Z,-2.55
2022-12-11T12:34:13.261Z,-2.73
2022-12-11T12:36:19.579Z,-2.7
2022-12-11T12:38:25.021Z,-2.66
2022-12-11T12:40:30.720Z,-2.64
2022-12-11T12:42:36.718Z,-2.69
2022-12-11T12:44:44.175Z,-2.62
2022-12-11T12:46:50.756Z,-2.66
2022-12-11T12:48:56.679Z,-2.61
2022-12-11T12:51:07.677Z,-2.65
2022-12-11T12:53:13.971Z,-2.66
2022-12-11T12:55:20.174Z,-2.65
2022-12-11T12:57:26.137Z,-2.69
2022-12-11T12:59:33.835Z,-2.82
2022-12-11T13:01:39.863Z,-2.75
2022-12-11T13:03:47.114Z,-2.9
2022-12-11T13:05:53.866Z,-2.86
2022-12-11T13:07:59.652Z,-2.89
2022-12-11T13:10:05.660Z,-2.87
2022-12-11T13:12:12.799Z,-2.91
2022-12-11T13:14:21.190Z,-2.99
2022-12-11T13:16:27.720Z,-3.03
2022-12-11T13:18:35.623Z,-3.03
2022-12-11T13:20:42.517Z,-3.08
2022-12-11T13:22:50.963Z,-3.02
2022-12-11T13:24:57.308Z,-2.99
2022-12-11T13:27:03.370Z,-3.03
2022-12-11T13:29:10.499Z,-3.05
2022-12-11T13:31:17.143Z,-3.09
2022-12-11T13:33:24.019Z,-3.04
2022-12-11T13:35:31.430Z,-3.07
2022-12-11T13:37:39.569Z,-3.01
2022-12-11T13:39:47.059Z,-3.13
2022-12-11T13:41:54.734Z,-3.08
2022-12-11T13:46:20.940Z,-3.07
2022-12-11T13:48:28.563Z,-3.02
2022-12-11T13:50:35.006Z,-2.97
2022-12-11T13:52:42.050Z,-3
2022-12-11T13:54:48.428Z,-3.19
2022-12-11T13:56:54.676Z,-3.22
2022-12-11T13:59:00.942Z,-3.22
2022-12-11T14:01:06.707Z,-3.17
2022-12-11T14:03:12.880Z,-3.21
2022-12-11T14:05:20.194Z,-3.21
2022-12-11T14:07:26.699Z,-3.21
2022-12-11T14:09:33.303Z,-3.19
2022-12-11T14:11:40.138Z,-3.27
2022-12-11T14:13:46.552Z,-3.29
2022-12-11T14:15:53.296Z,-3.3
2022-12-11T14:18:00.071Z,-3.44
2022-12-11T14:22:16.199Z,-3.37
2022-12-11T14:24:22.675Z,-3.44
2022-12-11T14:26:29.940Z,-3.48
2022-12-11T14:28:36.336Z,-3.48
2022-12-11T14:30:43.172Z,-3.52
2022-12-11T14:32:49.711Z,-3.49
2022-12-11T14:34:56.130Z,-3.53
2022-12-11T14:37:02.559Z,-3.52
2022-12-11T14:39:10.273Z,-3.52
2022-12-11T14:41:17.150Z,-3.51
2022-12-11T14:43:23.606Z,-3.52
2022-12-11T14:45:32.068Z,-3.55
2022-12-11T14:47:39.920Z,-3.57
2022-12-11T14:49:47.462Z,-3.53
2022-12-11T14:51:55.321Z,-3.56
2022-12-11T14:54:05.022Z,-3.53
2022-12-11T14:56:12.272Z,-3.55
2022-12-11T14:58:18.866Z,-3.53
2022-12-11T15:00:25.748Z,-3.52
2022-12-11T15:02:34.803Z,-3.52
2022-12-11T15:04:51.817Z,-3.56
2022-12-11T15:07:04.587Z,-3.56
2022-12-11T15:09:16.413Z,-3.56
2022-12-11T15:11:24.478Z,-3.55
2022-12-11T15:13:31.156Z,-3.53
2022-12-11T15:15:44.224Z,-3.55
2022-12-11T15:17:52.953Z,-3.58
2022-12-11T15:20:00.431Z,-3.57
2022-12-11T15:24:44.995Z,-3.57
2022-12-11T15:27:00.939Z,-3.59
2022-12-11T15:29:15.398Z,-3.57
2022-12-11T15:31:37.038Z,-3.54
2022-12-11T15:33:52.615Z,-3.56
2022-12-11T15:36:04.157Z,-3.57
2022-12-11T15:38:14.121Z,-3.59
2022-12-11T15:40:29.438Z,-3.64
2022-12-11T15:42:36.209Z,-3.68
2022-12-11T15:44:54.390Z,-3.68
2022-12-11T15:47:08.266Z,-3.63
2022-12-11T15:49:15.170Z,-3.64
2022-12-11T15:51:28.699Z,-3.67
2022-12-11T15:53:47.310Z,-3.62
2022-12-11T15:56:02.359Z,-3.63
2022-12-11T15:58:25.945Z,-3.59
2022-12-11T16:00:35.410Z,-3.59
2022-12-11T16:02:44.356Z,-3.58
2022-12-11T16:04:54.863Z,-3.61
2022-12-11T16:07:11.655Z,-3.61
2022-12-11T16:09:21.492Z,-3.61
2022-12-11T16:11:33.827Z,-3.59
2022-12-11T16:13:47.890Z,-3.59
2022-12-11T16:15:58.167Z,-3.59
2022-12-11T16:18:11.953Z,-3.61
2022-12-11T16:20:34.539Z,-3.6
2022-12-11T16:23:00.305Z,-3.66
2022-12-11T16:25:11.049Z,-3.64
2022-12-11T16:27:23.178Z,-3.62
2022-12-11T16:29:35.431Z,-3.66
2022-12-11T16:31:51.705Z,-3.68
2022-12-11T16:34:06.848Z,-3.69
2022-12-11T16:36:16.855Z,-3.67
2022-12-11T16:38:26.194Z,-3.73
2022-12-11T16:41:04.142Z,-3.75
2022-12-11T16:43:55.698Z,-3.74
2022-12-11T16:46:28.164Z,-3.73
2022-12-11T16:49:18.811Z,-3.72
2022-12-11T16:51:40.480Z,-3.77
2022-12-11T16:53:53.055Z,-3.76
2022-12-11T16:56:08.982Z,-3.79
2022-12-11T16:58:23.838Z,-3.79
2022-12-11T17:00:35.534Z,-3.75
2022-12-11T17:02:50.100Z,-3.73
2022-12-11T17:05:06.515Z,-3.78
2022-12-11T17:07:21.770Z,-3.76
2022-12-11T17:12:04.587Z,-3.74
2022-12-11T17:14:18.603Z,-3.76
2022-12-11T17:16:36.847Z,-3.73
2022-12-11T17:19:03.154Z,-3.77
2022-12-11T17:21:21.922Z,-3.75
2022-12-11T17:23:45.958Z,-3.74
2022-12-11T17:26:02.006Z,-3.75
2022-12-11T17:28:16.149Z,-3.76
2022-12-11T17:30:26.687Z,-3.77
2022-12-11T17:32:40.377Z,-3.77
2022-12-11T17:37:23.515Z,-3.79
2022-12-11T17:39:41.267Z,-3.81
2022-12-11T17:41:48.767Z,-3.79
2022-12-11T17:44:10.605Z,-3.79
2022-12-11T17:46:30.356Z,-3.8
2022-12-11T17:48:37.933Z,-3.78
2022-12-11T17:50:58.659Z,-3.8
2022-12-11T17:53:16.826Z,-3.82
2022-12-11T17:55:27.139Z,-3.83
2022-12-11T17:57:36.394Z,-3.84
2022-12-11T17:59:55.465Z,-3.86
2022-12-11T18:02:09.968Z,-3.88
2022-12-11T18:04:40.171Z,-3.86
2022-12-11T18:06:50.135Z,-3.88
2022-12-11T18:09:00.362Z,-3.84
2022-12-11T18:11:11.762Z,-3.84
2022-12-11T18:13:20.348Z,-3.87
2022-12-11T18:15:31.594Z,-3.86
2022-12-11T18:17:50.650Z,-3.85
2022-12-11T18:19:59.286Z,-3.85
2022-12-11T18:22:10.177Z,-3.85
2022-12-11T18:24:25.079Z,-3.86
2022-12-11T18:26:36.073Z,-3.83
2022-12-11T18:28:48.382Z,-3.88
2022-12-11T18:31:02.889Z,-3.85
2022-12-11T18:33:21.240Z,-3.87
2022-12-11T18:35:37.868Z,-3.88
2022-12-11T18:37:51.368Z,-3.86
2022-12-11T18:40:12.180Z,-3.88
2022-12-11T18:42:32.570Z,-3.89
2022-12-11T18:44:45.035Z,-3.88
2022-12-11T18:46:59.529Z,-3.89
2022-12-11T18:49:12.262Z,-3.9
2022-12-11T18:51:45.465Z,-3.9
2022-12-11T18:53:56.478Z,-3.91
2022-12-11T18:56:10.689Z,-3.9
2022-12-11T18:58:21.732Z,-3.9
2022-12-11T19:00:37.102Z,-3.94
2022-12-11T19:02:52.196Z,-3.94
2022-12-11T19:05:04.107Z,-3.9
2022-12-11T19:07:16.360Z,-3.91
2022-12-11T19:09:35.389Z,-3.9
2022-12-11T19:11:57.788Z,-3.89
2022-12-11T19:14:08.552Z,-3.88
2022-12-11T19:16:21.436Z,-3.86
2022-12-11T19:18:31.508Z,-3.87
2022-12-11T19:20:51.020Z,-3.87
2022-12-11T19:23:21.702Z,-3.86
2022-12-11T19:25:31.436Z,-3.87
2022-12-11T19:27:42.934Z,-3.89
2022-12-11T19:29:56.713Z,-3.88
2022-12-11T19:32:12.492Z,-3.88
2022-12-11T19:34:31.173Z,-3.91
2022-12-11T19:36:57.419Z,-3.92
2022-12-11T19:39:14.346Z,-3.9
2022-12-11T19:41:31.333Z,-3.91
2022-12-11T19:43:43.706Z,-3.9
2022-12-11T19:45:54.936Z,-3.93
2022-12-11T19:48:06.313Z,-3.94
2022-12-11T19:50:28.043Z,-4
2022-12-11T19:52:42.933Z,-3.95
2022-12-11T19:54:57.530Z,-3.95
2022-12-11T19:57:06.234Z,-3.97
2022-12-11T19:59:23.222Z,-4
2022-12-11T20:01:47.584Z,-4.01
2022-12-11T20:04:03.941Z,-4.01
2022-12-11T20:06:23.346Z,-4
2022-12-11T20:08:45.953Z,-4.01
2022-12-11T20:11:10.547Z,-3.99
2022-12-11T20:13:30.155Z,-3.99
2022-12-11T20:15:39.949Z,-3.98
2022-12-11T20:17:57.305Z,-3.99
2022-12-11T20:20:14.992Z,-3.95
2022-12-11T20:22:25.797Z,-3.95
2022-12-11T20:24:42.454Z,-3.93
2022-12-11T20:27:00.111Z,-3.92
2022-12-11T20:29:16.839Z,-3.9
2022-12-11T20:34:11.880Z,-3.87
2022-12-11T20:42:34.506Z,-3.85
2022-12-11T20:44:53.304Z,-3.86
2022-12-11T20:47:09.625Z,-3.85
2022-12-11T20:49:29.826Z,-3.84
2022-12-11T20:51:47.900Z,-3.84
2022-12-11T20:54:01.007Z,-3.87
2022-12-11T20:56:17.486Z,-3.89
2022-12-11T20:58:29.644Z,-3.88
2022-12-11T21:00:40.965Z,-3.84
2022-12-11T21:03:14.977Z,-3.9
2022-12-11T21:05:34.579Z,-3.88
2022-12-11T21:07:54.030Z,-3.9
2022-12-11T21:10:06.204Z,-3.85
2022-12-11T21:12:21.137Z,-3.85
2022-12-11T21:14:37.147Z,-3.84
2022-12-11T21:16:52.349Z,-3.84
2022-12-11T21:19:02.880Z,-3.88
2022-12-11T21:21:26.515Z,-3.85
2022-12-11T21:23:38.110Z,-3.85
2022-12-11T21:25:52.379Z,-3.84
2022-12-11T21:28:03.714Z,-3.83
2022-12-11T21:30:13.158Z,-3.81
2022-12-11T21:32:25.039Z,-3.83
2022-12-11T21:34:34.093Z,-3.82
2022-12-11T21:36:40.775Z,-3.82
2022-12-11T21:38:55.003Z,-3.84
2022-12-11T21:41:01.672Z,-3.8
2022-12-11T21:43:12.191Z,-3.8
2022-12-11T21:45:59.054Z,-3.8
2022-12-11T21:48:13.803Z,-3.82
2022-12-11T21:50:23.578Z,-3.8
2022-12-11T21:52:42.248Z,-3.81
2022-12-11T21:54:51.800Z,-3.82
2022-12-11T21:57:03.946Z,-3.84
2022-12-11T21:59:09.879Z,-3.82
2022-12-11T22:01:16.242Z,-3.82
2022-12-11T22:03:29.257Z,-3.81
2022-12-11T22:05:35.616Z,-3.8
2022-12-11T22:07:48.261Z,-3.8
2022-12-11T22:09:57.736Z,-3.79
2022-12-11T22:12:06.768Z,-3.79
2022-12-11T22:14:20.991Z,-3.78
2022-12-11T22:16:29.470Z,-3.78
2022-12-11T22:18:35.861Z,-3.78
2022-12-11T22:20:41.577Z,-3.78
2022-12-11T22:22:48.413Z,-3.78
2022-12-11T22:25:00.794Z,-3.77
2022-12-11T22:27:10.448Z,-3.78
2022-12-11T22:29:26.975Z,-3.75
2022-12-11T22:31:32.845Z,-3.78
2022-12-11T22:33:46.686Z,-3.75
2022-12-11T22:35:58.105Z,-3.79
2022-12-11T22:38:08.775Z,-3.77
2022-12-11T22:40:14.596Z,-3.79
2022-12-11T22:42:28.270Z,-3.81
2022-12-11T22:44:35.450Z,-3.81
2022-12-11T22:46:52.221Z,-3.83
2022-12-11T22:49:01.264Z,-3.81
2022-12-11T22:51:06.726Z,-3.77
2022-12-11T22:53:12.817Z,-3.79
2022-12-11T22:55:21.291Z,-3.8
2022-12-11T22:57:29.957Z,-3.79
2022-12-11T22:59:38.174Z,-3.77
2022-12-11T23:01:43.770Z,-3.78
2022-12-11T23:03:52.969Z,-3.79
2022-12-11T23:06:04.935Z,-3.78
2022-12-11T23:08:13.031Z,-3.75
2022-12-11T23:10:19.504Z,-3.78
2022-12-11T23:12:27.583Z,-3.79
2022-12-11T23:14:33.305Z,-3.77
2022-12-11T23:16:38.919Z,-3.76
2022-12-11T23:18:47.586Z,-3.76
2022-12-11T23:20:55.448Z,-3.71
2022-12-11T23:23:01.199Z,-3.74
2022-12-11T23:25:11.673Z,-3.71
2022-12-11T23:27:21.086Z,-3.72
2022-12-11T23:29:28.073Z,-3.7
2022-12-11T23:31:33.730Z,-3.72
2022-12-11T23:33:43.318Z,-3.71
2022-12-11T23:35:59.046Z,-3.7
2022-12-11T23:38:04.710Z,-3.71
2022-12-11T23:40:12.011Z,-3.72
2022-12-11T23:42:20.434Z,-3.72
2022-12-11T23:44:32.052Z,-3.72
2022-12-11T23:46:40.267Z,-3.7
2022-12-11T23:48:47.878Z,-3.69
2022-12-11T23:50:57.765Z,-3.68
2022-12-11T23:53:06.334Z,-3.68
2022-12-11T23:55:14.452Z,-3.66
2022-12-11T23:57:23.941Z,-3.66
2022-12-11T23:59:29.941Z,-3.65
